sensor_id;sensor_type;location;lat;lon;timestamp;P1;durP1;ratioP1;P2;durP2;ratioP2
1467;SDS011;727;48.892;9.544;2022-08-19T00:00:57;15.60;;;14.30;;
1467;SDS011;727;48.892;9.544;2022-08-19T00:03:24;15.53;;;14.10;;
1467;SDS011;727;48.892;9.544;2022-08-19T00:05:50;17.33;;;15.13;;
1467;SDS011;727;48.892;9.544;2022-08-19T00:08:17;17.13;;;15.43;;
1467;SDS011;727;48.892;9.544;2022-08-19T00:10:44;16.87;;;15.47;;
1467;SDS011;727;48.892;9.544;2022-08-19T00:13:12;16.27;;;14.97;;
1467;SDS011;727;48.892;9.544;2022-08-19T00:15:40;17.30;;;15.73;;
1467;SDS011;727;48.892;9.544;2022-08-19T00:18:09;16.37;;;14.83;;
1467;SDS011;727;48.892;9.544;2022-08-19T00:20:36;16.23;;;14.83;;
1467;SDS011;727;48.892;9.544;2022-08-19T00:23:05;17.67;;;16.20;;
1467;SDS011;727;48.892;9.544;2022-08-19T00:25:32;15.90;;;14.60;;
1467;SDS011;727;48.892;9.544;2022-08-19T00:28:01;16.73;;;15.30;;
1467;SDS011;727;48.892;9.544;2022-08-19T00:30:30;17.00;;;15.60;;
1467;SDS011;727;48.892;9.544;2022-08-19T00:32:57;18.17;;;16.53;;
1467;SDS011;727;48.892;9.544;2022-08-19T00:35:24;15.57;;;14.27;;
1467;SDS011;727;48.892;9.544;2022-08-19T00:37:52;16.20;;;14.80;;
1467;SDS011;727;48.892;9.544;2022-08-19T00:40:19;16.20;;;14.80;;
1467;SDS011;727;48.892;9.544;2022-08-19T00:42:47;22.50;;;15.00;;
1467;SDS011;727;48.892;9.544;2022-08-19T00:45:14;17.73;;;16.13;;
1467;SDS011;727;48.892;9.544;2022-08-19T00:47:44;18.27;;;16.67;;
1467;SDS011;727;48.892;9.544;2022-08-19T00:50:12;15.77;;;14.47;;
1467;SDS011;727;48.892;9.544;2022-08-19T00:52:41;16.80;;;15.37;;
1467;SDS011;727;48.892;9.544;2022-08-19T00:55:12;16.33;;;14.93;;
1467;SDS011;727;48.892;9.544;2022-08-19T00:57:42;15.80;;;14.50;;
1467;SDS011;727;48.892;9.544;2022-08-19T01:00:13;18.20;;;16.50;;
1467;SDS011;727;48.892;9.544;2022-08-19T01:02:44;17.40;;;15.90;;
1467;SDS011;727;48.892;9.544;2022-08-19T01:05:12;15.80;;;14.53;;
1467;SDS011;727;48.892;9.544;2022-08-19T01:07:43;17.60;;;16.00;;
1467;SDS011;727;48.892;9.544;2022-08-19T01:10:12;16.40;;;14.90;;
1467;SDS011;727;48.892;9.544;2022-08-19T01:12:41;16.17;;;14.70;;
1467;SDS011;727;48.892;9.544;2022-08-19T01:15:09;16.67;;;15.10;;
1467;SDS011;727;48.892;9.544;2022-08-19T01:17:40;17.27;;;15.87;;
1467;SDS011;727;48.892;9.544;2022-08-19T01:20:10;16.07;;;14.67;;
1467;SDS011;727;48.892;9.544;2022-08-19T01:22:40;17.00;;;15.50;;
1467;SDS011;727;48.892;9.544;2022-08-19T01:25:10;17.03;;;15.53;;
1467;SDS011;727;48.892;9.544;2022-08-19T01:27:38;17.30;;;15.90;;
1467;SDS011;727;48.892;9.544;2022-08-19T01:30:06;16.40;;;15.10;;
1467;SDS011;727;48.892;9.544;2022-08-19T01:32:34;17.73;;;16.17;;
1467;SDS011;727;48.892;9.544;2022-08-19T01:35:00;16.77;;;15.30;;
1467;SDS011;727;48.892;9.544;2022-08-19T01:37:28;16.60;;;15.00;;
1467;SDS011;727;48.892;9.544;2022-08-19T01:39:56;16.97;;;15.53;;
1467;SDS011;727;48.892;9.544;2022-08-19T01:42:23;15.70;;;14.30;;
1467;SDS011;727;48.892;9.544;2022-08-19T01:44:50;16.83;;;15.43;;
1467;SDS011;727;48.892;9.544;2022-08-19T01:47:17;16.47;;;15.00;;
1467;SDS011;727;48.892;9.544;2022-08-19T01:49:44;19.07;;;17.50;;
1467;SDS011;727;48.892;9.544;2022-08-19T01:52:11;17.47;;;15.97;;
1467;SDS011;727;48.892;9.544;2022-08-19T01:54:38;19.00;;;17.20;;
1467;SDS011;727;48.892;9.544;2022-08-19T01:57:07;16.57;;;14.87;;
1467;SDS011;727;48.892;9.544;2022-08-19T01:59:38;18.17;;;16.67;;
1467;SDS011;727;48.892;9.544;2022-08-19T02:02:06;18.40;;;16.80;;
1467;SDS011;727;48.892;9.544;2022-08-19T02:04:33;18.10;;;16.40;;
1467;SDS011;727;48.892;9.544;2022-08-19T02:07:00;18.27;;;16.27;;
1467;SDS011;727;48.892;9.544;2022-08-19T02:09:27;18.33;;;16.70;;
1467;SDS011;727;48.892;9.544;2022-08-19T02:11:54;19.83;;;18.03;;
1467;SDS011;727;48.892;9.544;2022-08-19T02:14:22;20.13;;;18.20;;
1467;SDS011;727;48.892;9.544;2022-08-19T02:16:49;19.10;;;17.43;;
1467;SDS011;727;48.892;9.544;2022-08-19T02:19:15;18.40;;;16.80;;
1467;SDS011;727;48.892;9.544;2022-08-19T02:21:42;18.03;;;16.37;;
1467;SDS011;727;48.892;9.544;2022-08-19T02:24:09;17.80;;;16.20;;
1467;SDS011;727;48.892;9.544;2022-08-19T02:26:37;17.07;;;15.67;;
1467;SDS011;727;48.892;9.544;2022-08-19T02:29:04;18.03;;;16.33;;
1467;SDS011;727;48.892;9.544;2022-08-19T02:31:32;17.77;;;16.17;;
1467;SDS011;727;48.892;9.544;2022-08-19T02:33:58;18.00;;;16.40;;
1467;SDS011;727;48.892;9.544;2022-08-19T02:36:25;17.77;;;16.17;;
1467;SDS011;727;48.892;9.544;2022-08-19T02:38:52;18.50;;;16.80;;
1467;SDS011;727;48.892;9.544;2022-08-19T02:41:20;18.17;;;16.57;;
1467;SDS011;727;48.892;9.544;2022-08-19T02:43:48;18.80;;;17.17;;
1467;SDS011;727;48.892;9.544;2022-08-19T02:46:15;19.03;;;17.13;;
1467;SDS011;727;48.892;9.544;2022-08-19T02:48:47;18.70;;;16.90;;
1467;SDS011;727;48.892;9.544;2022-08-19T02:51:16;18.60;;;16.80;;
1467;SDS011;727;48.892;9.544;2022-08-19T02:53:44;17.90;;;15.77;;
1467;SDS011;727;48.892;9.544;2022-08-19T02:56:10;17.33;;;15.73;;
1467;SDS011;727;48.892;9.544;2022-08-19T02:58:37;18.87;;;17.07;;
1467;SDS011;727;48.892;9.544;2022-08-19T03:01:04;19.13;;;17.33;;
1467;SDS011;727;48.892;9.544;2022-08-19T03:03:30;18.17;;;16.67;;
1467;SDS011;727;48.892;9.544;2022-08-19T03:06:06;17.63;;;16.03;;
1467;SDS011;727;48.892;9.544;2022-08-19T03:08:35;20.03;;;17.00;;
1467;SDS011;727;48.892;9.544;2022-08-19T03:11:03;19.87;;;17.97;;
1467;SDS011;727;48.892;9.544;2022-08-19T03:13:30;20.03;;;17.93;;
1467;SDS011;727;48.892;9.544;2022-08-19T03:15:57;19.17;;;17.47;;
1467;SDS011;727;48.892;9.544;2022-08-19T03:18:24;18.23;;;16.47;;
1467;SDS011;727;48.892;9.544;2022-08-19T03:20:51;19.83;;;18.00;;
1467;SDS011;727;48.892;9.544;2022-08-19T03:23:21;18.00;;;16.40;;
1467;SDS011;727;48.892;9.544;2022-08-19T03:25:50;20.97;;;18.87;;
1467;SDS011;727;48.892;9.544;2022-08-19T03:28:19;20.07;;;18.27;;
1467;SDS011;727;48.892;9.544;2022-08-19T03:30:56;19.80;;;18.00;;
1467;SDS011;727;48.892;9.544;2022-08-19T03:33:24;18.67;;;16.90;;
1467;SDS011;727;48.892;9.544;2022-08-19T03:35:59;19.93;;;17.97;;
1467;SDS011;727;48.892;9.544;2022-08-19T03:38:28;21.80;;;19.70;;
1467;SDS011;727;48.892;9.544;2022-08-19T03:40:55;20.43;;;18.43;;
1467;SDS011;727;48.892;9.544;2022-08-19T03:43:22;19.07;;;17.20;;
1467;SDS011;727;48.892;9.544;2022-08-19T03:45:49;21.60;;;17.80;;
1467;SDS011;727;48.892;9.544;2022-08-19T03:48:26;20.13;;;18.23;;
1467;SDS011;727;48.892;9.544;2022-08-19T03:50:52;20.60;;;18.50;;
1467;SDS011;727;48.892;9.544;2022-08-19T03:53:19;19.47;;;17.43;;
1467;SDS011;727;48.892;9.544;2022-08-19T03:55:47;19.97;;;18.13;;
1467;SDS011;727;48.892;9.544;2022-08-19T03:58:14;19.40;;;17.60;;
1467;SDS011;727;48.892;9.544;2022-08-19T04:00:41;21.20;;;19.10;;
1467;SDS011;727;48.892;9.544;2022-08-19T04:03:08;19.50;;;17.60;;
1467;SDS011;727;48.892;9.544;2022-08-19T04:05:35;21.13;;;18.87;;
1467;SDS011;727;48.892;9.544;2022-08-19T04:08:02;20.93;;;18.93;;
1467;SDS011;727;48.892;9.544;2022-08-19T04:10:30;21.20;;;19.30;;
1467;SDS011;727;48.892;9.544;2022-08-19T04:12:58;19.87;;;18.00;;
1467;SDS011;727;48.892;9.544;2022-08-19T04:15:25;21.03;;;19.20;;
1467;SDS011;727;48.892;9.544;2022-08-19T04:17:53;19.80;;;17.83;;
1467;SDS011;727;48.892;9.544;2022-08-19T04:20:21;20.80;;;18.70;;
1467;SDS011;727;48.892;9.544;2022-08-19T04:22:48;18.77;;;17.07;;
1467;SDS011;727;48.892;9.544;2022-08-19T04:25:14;21.20;;;19.07;;
1467;SDS011;727;48.892;9.544;2022-08-19T04:27:41;19.70;;;17.87;;
1467;SDS011;727;48.892;9.544;2022-08-19T04:30:13;23.10;;;20.80;;
1467;SDS011;727;48.892;9.544;2022-08-19T04:32:40;20.13;;;18.07;;
1467;SDS011;727;48.892;9.544;2022-08-19T04:35:08;20.80;;;18.70;;
1467;SDS011;727;48.892;9.544;2022-08-19T04:37:35;21.03;;;19.10;;
1467;SDS011;727;48.892;9.544;2022-08-19T04:40:04;20.00;;;18.20;;
1467;SDS011;727;48.892;9.544;2022-08-19T04:42:49;21.00;;;19.03;;
1467;SDS011;727;48.892;9.544;2022-08-19T04:45:17;22.77;;;19.97;;
1467;SDS011;727;48.892;9.544;2022-08-19T04:47:44;25.67;;;19.27;;
1467;SDS011;727;48.892;9.544;2022-08-19T04:50:11;22.47;;;19.93;;
1467;SDS011;727;48.892;9.544;2022-08-19T04:52:38;22.00;;;19.60;;
1467;SDS011;727;48.892;9.544;2022-08-19T04:55:07;23.07;;;20.47;;
1467;SDS011;727;48.892;9.544;2022-08-19T04:57:35;21.77;;;19.67;;
1467;SDS011;727;48.892;9.544;2022-08-19T05:00:06;21.90;;;19.80;;
1467;SDS011;727;48.892;9.544;2022-08-19T05:02:35;24.20;;;22.07;;
1467;SDS011;727;48.892;9.544;2022-08-19T05:05:02;26.33;;;23.70;;
1467;SDS011;727;48.892;9.544;2022-08-19T05:07:30;23.57;;;21.17;;
1467;SDS011;727;48.892;9.544;2022-08-19T05:09:57;26.80;;;23.93;;
1467;SDS011;727;48.892;9.544;2022-08-19T05:12:24;22.60;;;20.20;;
1467;SDS011;727;48.892;9.544;2022-08-19T05:14:51;25.13;;;21.30;;
1467;SDS011;727;48.892;9.544;2022-08-19T05:17:19;25.20;;;21.23;;
1467;SDS011;727;48.892;9.544;2022-08-19T05:19:47;24.40;;;21.77;;
1467;SDS011;727;48.892;9.544;2022-08-19T05:22:31;21.70;;;19.50;;
1467;SDS011;727;48.892;9.544;2022-08-19T05:25:01;23.07;;;20.63;;
1467;SDS011;727;48.892;9.544;2022-08-19T05:27:29;22.83;;;20.33;;
1467;SDS011;727;48.892;9.544;2022-08-19T05:29:56;21.13;;;19.13;;
1467;SDS011;727;48.892;9.544;2022-08-19T05:32:23;24.10;;;21.70;;
1467;SDS011;727;48.892;9.544;2022-08-19T05:34:51;23.47;;;21.17;;
1467;SDS011;727;48.892;9.544;2022-08-19T05:37:17;23.13;;;20.63;;
1467;SDS011;727;48.892;9.544;2022-08-19T05:39:44;22.60;;;20.20;;
1467;SDS011;727;48.892;9.544;2022-08-19T05:42:11;23.97;;;21.03;;
1467;SDS011;727;48.892;9.544;2022-08-19T05:44:39;22.30;;;18.67;;
1467;SDS011;727;48.892;9.544;2022-08-19T05:47:08;20.93;;;18.63;;
1467;SDS011;727;48.892;9.544;2022-08-19T05:49:35;21.00;;;18.73;;
1467;SDS011;727;48.892;9.544;2022-08-19T05:52:05;21.33;;;19.20;;
1467;SDS011;727;48.892;9.544;2022-08-19T05:54:34;20.57;;;17.93;;
1467;SDS011;727;48.892;9.544;2022-08-19T05:57:05;26.17;;;19.30;;
1467;SDS011;727;48.892;9.544;2022-08-19T05:59:32;21.80;;;19.60;;
1467;SDS011;727;48.892;9.544;2022-08-19T06:02:00;21.37;;;19.10;;
1467;SDS011;727;48.892;9.544;2022-08-19T06:04:27;22.13;;;19.83;;
1467;SDS011;727;48.892;9.544;2022-08-19T06:06:54;31.17;;;21.60;;
1467;SDS011;727;48.892;9.544;2022-08-19T06:09:22;26.50;;;23.90;;
1467;SDS011;727;48.892;9.544;2022-08-19T06:11:50;28.67;;;22.07;;
1467;SDS011;727;48.892;9.544;2022-08-19T06:14:20;27.43;;;22.87;;
1467;SDS011;727;48.892;9.544;2022-08-19T06:16:50;28.70;;;23.70;;
1467;SDS011;727;48.892;9.544;2022-08-19T06:19:17;30.33;;;24.83;;
1467;SDS011;727;48.892;9.544;2022-08-19T06:21:45;30.83;;;26.63;;
1467;SDS011;727;48.892;9.544;2022-08-19T06:24:15;32.10;;;25.53;;
1467;SDS011;727;48.892;9.544;2022-08-19T06:26:45;29.90;;;23.40;;
1467;SDS011;727;48.892;9.544;2022-08-19T06:29:14;35.43;;;27.00;;
1467;SDS011;727;48.892;9.544;2022-08-19T06:31:43;32.20;;;27.47;;
1467;SDS011;727;48.892;9.544;2022-08-19T06:34:12;30.87;;;26.63;;
1467;SDS011;727;48.892;9.544;2022-08-19T06:36:40;28.10;;;25.10;;
1467;SDS011;727;48.892;9.544;2022-08-19T06:39:10;29.57;;;26.47;;
1467;SDS011;727;48.892;9.544;2022-08-19T06:41:39;31.10;;;25.10;;
1467;SDS011;727;48.892;9.544;2022-08-19T06:44:09;28.70;;;24.70;;
1467;SDS011;727;48.892;9.544;2022-08-19T06:46:38;31.57;;;27.63;;
1467;SDS011;727;48.892;9.544;2022-08-19T06:49:05;31.07;;;27.33;;
1467;SDS011;727;48.892;9.544;2022-08-19T06:51:36;28.47;;;25.40;;
1467;SDS011;727;48.892;9.544;2022-08-19T06:54:04;30.40;;;27.10;;
1467;SDS011;727;48.892;9.544;2022-08-19T06:56:31;30.77;;;27.43;;
1467;SDS011;727;48.892;9.544;2022-08-19T06:58:59;32.57;;;26.03;;
1467;SDS011;727;48.892;9.544;2022-08-19T07:01:28;35.20;;;27.70;;
1467;SDS011;727;48.892;9.544;2022-08-19T07:03:54;28.27;;;25.37;;
1467;SDS011;727;48.892;9.544;2022-08-19T07:06:27;32.80;;;27.43;;
1467;SDS011;727;48.892;9.544;2022-08-19T07:08:55;32.60;;;26.63;;
1467;SDS011;727;48.892;9.544;2022-08-19T07:11:23;32.40;;;28.83;;
1467;SDS011;727;48.892;9.544;2022-08-19T07:13:51;30.00;;;25.60;;
1467;SDS011;727;48.892;9.544;2022-08-19T07:16:19;29.00;;;25.90;;
1467;SDS011;727;48.892;9.544;2022-08-19T07:18:48;30.87;;;26.83;;
1467;SDS011;727;48.892;9.544;2022-08-19T07:21:16;29.87;;;26.50;;
1467;SDS011;727;48.892;9.544;2022-08-19T07:23:46;35.20;;;29.83;;
1467;SDS011;727;48.892;9.544;2022-08-19T07:26:15;29.47;;;26.40;;
1467;SDS011;727;48.892;9.544;2022-08-19T07:28:44;33.17;;;28.63;;
1467;SDS011;727;48.892;9.544;2022-08-19T07:31:11;32.27;;;28.10;;
1467;SDS011;727;48.892;9.544;2022-08-19T07:33:40;34.97;;;28.77;;
1467;SDS011;727;48.892;9.544;2022-08-19T07:36:09;34.13;;;27.03;;
1467;SDS011;727;48.892;9.544;2022-08-19T07:38:38;31.07;;;27.70;;
1467;SDS011;727;48.892;9.544;2022-08-19T07:41:10;39.23;;;31.30;;
1467;SDS011;727;48.892;9.544;2022-08-19T07:43:39;32.17;;;28.67;;
1467;SDS011;727;48.892;9.544;2022-08-19T07:46:08;32.90;;;28.40;;
1467;SDS011;727;48.892;9.544;2022-08-19T07:48:36;34.30;;;30.50;;
1467;SDS011;727;48.892;9.544;2022-08-19T07:51:04;35.53;;;28.90;;
1467;SDS011;727;48.892;9.544;2022-08-19T07:53:34;32.10;;;28.67;;
1467;SDS011;727;48.892;9.544;2022-08-19T07:56:03;32.80;;;28.30;;
1467;SDS011;727;48.892;9.544;2022-08-19T07:58:31;29.13;;;26.00;;
1467;SDS011;727;48.892;9.544;2022-08-19T08:01:00;31.13;;;27.80;;
1467;SDS011;727;48.892;9.544;2022-08-19T08:03:27;31.87;;;26.93;;
1467;SDS011;727;48.892;9.544;2022-08-19T08:06:09;38.03;;;28.47;;
1467;SDS011;727;48.892;9.544;2022-08-19T08:08:57;31.07;;;27.80;;
1467;SDS011;727;48.892;9.544;2022-08-19T08:11:48;33.00;;;29.33;;
1467;SDS011;727;48.892;9.544;2022-08-19T08:14:17;33.30;;;27.70;;
1467;SDS011;727;48.892;9.544;2022-08-19T08:16:47;28.93;;;25.87;;
1467;SDS011;727;48.892;9.544;2022-08-19T08:19:16;28.37;;;25.27;;
1467;SDS011;727;48.892;9.544;2022-08-19T08:21:43;32.07;;;26.10;;
1467;SDS011;727;48.892;9.544;2022-08-19T08:24:12;34.17;;;28.47;;
1467;SDS011;727;48.892;9.544;2022-08-19T08:26:39;32.40;;;25.93;;
1467;SDS011;727;48.892;9.544;2022-08-19T08:29:07;29.07;;;25.93;;
1467;SDS011;727;48.892;9.544;2022-08-19T08:31:35;31.73;;;28.20;;
1467;SDS011;727;48.892;9.544;2022-08-19T08:34:02;30.93;;;27.70;;
1467;SDS011;727;48.892;9.544;2022-08-19T08:36:29;31.30;;;28.00;;
1467;SDS011;727;48.892;9.544;2022-08-19T08:38:58;28.27;;;25.33;;
1467;SDS011;727;48.892;9.544;2022-08-19T08:41:28;29.70;;;26.40;;
1467;SDS011;727;48.892;9.544;2022-08-19T08:44:00;29.80;;;25.87;;
1467;SDS011;727;48.892;9.544;2022-08-19T08:46:30;33.47;;;26.10;;
1467;SDS011;727;48.892;9.544;2022-08-19T08:49:04;35.30;;;26.83;;
1467;SDS011;727;48.892;9.544;2022-08-19T08:51:38;33.70;;;27.03;;
1467;SDS011;727;48.892;9.544;2022-08-19T08:54:07;32.27;;;26.83;;
1467;SDS011;727;48.892;9.544;2022-08-19T08:56:39;31.60;;;28.17;;
1467;SDS011;727;48.892;9.544;2022-08-19T08:59:10;29.13;;;26.13;;
1467;SDS011;727;48.892;9.544;2022-08-19T09:01:42;28.13;;;25.00;;
1467;SDS011;727;48.892;9.544;2022-08-19T09:04:09;28.13;;;25.27;;
1467;SDS011;727;48.892;9.544;2022-08-19T09:06:40;28.57;;;25.70;;
1467;SDS011;727;48.892;9.544;2022-08-19T09:09:15;31.80;;;25.20;;
1467;SDS011;727;48.892;9.544;2022-08-19T09:11:52;30.47;;;26.40;;
1467;SDS011;727;48.892;9.544;2022-08-19T09:14:34;27.33;;;24.37;;
1467;SDS011;727;48.892;9.544;2022-08-19T09:17:06;26.73;;;23.93;;
1467;SDS011;727;48.892;9.544;2022-08-19T09:19:34;30.73;;;25.43;;
1467;SDS011;727;48.892;9.544;2022-08-19T09:22:01;30.10;;;25.67;;
1467;SDS011;727;48.892;9.544;2022-08-19T09:24:27;27.07;;;24.17;;
1467;SDS011;727;48.892;9.544;2022-08-19T09:26:55;25.97;;;23.37;;
1467;SDS011;727;48.892;9.544;2022-08-19T09:29:22;25.00;;;22.40;;
1467;SDS011;727;48.892;9.544;2022-08-19T09:31:49;25.97;;;22.90;;
1467;SDS011;727;48.892;9.544;2022-08-19T09:34:16;26.87;;;24.07;;
1467;SDS011;727;48.892;9.544;2022-08-19T09:36:44;26.83;;;24.10;;
1467;SDS011;727;48.892;9.544;2022-08-19T09:39:11;25.17;;;22.57;;
1467;SDS011;727;48.892;9.544;2022-08-19T09:41:38;26.40;;;22.00;;
1467;SDS011;727;48.892;9.544;2022-08-19T09:44:05;31.80;;;26.30;;
1467;SDS011;727;48.892;9.544;2022-08-19T09:46:32;26.13;;;22.93;;
1467;SDS011;727;48.892;9.544;2022-08-19T09:49:01;27.77;;;24.87;;
1467;SDS011;727;48.892;9.544;2022-08-19T09:51:30;26.83;;;23.93;;
1467;SDS011;727;48.892;9.544;2022-08-19T09:53:59;28.10;;;25.20;;
1467;SDS011;727;48.892;9.544;2022-08-19T09:56:27;27.67;;;24.87;;
1467;SDS011;727;48.892;9.544;2022-08-19T09:58:55;25.27;;;22.57;;
1467;SDS011;727;48.892;9.544;2022-08-19T10:01:25;27.50;;;24.50;;
1467;SDS011;727;48.892;9.544;2022-08-19T10:03:54;33.40;;;25.87;;
1467;SDS011;727;48.892;9.544;2022-08-19T10:06:23;31.27;;;24.60;;
1467;SDS011;727;48.892;9.544;2022-08-19T10:08:54;26.27;;;23.67;;
1467;SDS011;727;48.892;9.544;2022-08-19T10:11:20;29.87;;;24.97;;
1467;SDS011;727;48.892;9.544;2022-08-19T10:13:48;30.30;;;25.43;;
1467;SDS011;727;48.892;9.544;2022-08-19T10:16:16;28.10;;;25.30;;
1467;SDS011;727;48.892;9.544;2022-08-19T10:18:45;28.87;;;23.83;;
1467;SDS011;727;48.892;9.544;2022-08-19T10:21:14;26.60;;;23.93;;
1467;SDS011;727;48.892;9.544;2022-08-19T10:23:43;25.87;;;23.10;;
1467;SDS011;727;48.892;9.544;2022-08-19T10:26:16;27.40;;;23.50;;
1467;SDS011;727;48.892;9.544;2022-08-19T10:28:45;28.43;;;23.63;;
1467;SDS011;727;48.892;9.544;2022-08-19T10:31:12;23.87;;;21.27;;
1467;SDS011;727;48.892;9.544;2022-08-19T10:33:42;24.53;;;22.13;;
1467;SDS011;727;48.892;9.544;2022-08-19T10:36:11;25.60;;;22.80;;
1467;SDS011;727;48.892;9.544;2022-08-19T10:38:42;24.70;;;22.10;;
1467;SDS011;727;48.892;9.544;2022-08-19T10:41:10;25.20;;;22.60;;
1467;SDS011;727;48.892;9.544;2022-08-19T10:43:39;26.20;;;23.40;;
1467;SDS011;727;48.892;9.544;2022-08-19T10:46:06;25.97;;;22.93;;
1467;SDS011;727;48.892;9.544;2022-08-19T10:48:34;26.67;;;23.60;;
1467;SDS011;727;48.892;9.544;2022-08-19T10:51:02;29.90;;;22.70;;
1467;SDS011;727;48.892;9.544;2022-08-19T10:53:48;29.87;;;26.17;;
1467;SDS011;727;48.892;9.544;2022-08-19T10:56:15;26.90;;;23.13;;
1467;SDS011;727;48.892;9.544;2022-08-19T10:58:59;26.17;;;22.43;;
1467;SDS011;727;48.892;9.544;2022-08-19T11:01:28;24.27;;;21.93;;
1467;SDS011;727;48.892;9.544;2022-08-19T11:03:55;23.30;;;20.90;;
1467;SDS011;727;48.892;9.544;2022-08-19T11:06:23;30.37;;;23.93;;
1467;SDS011;727;48.892;9.544;2022-08-19T11:08:52;24.93;;;22.33;;
1467;SDS011;727;48.892;9.544;2022-08-19T11:11:20;26.87;;;23.90;;
1467;SDS011;727;48.892;9.544;2022-08-19T11:13:47;23.77;;;21.10;;
1467;SDS011;727;48.892;9.544;2022-08-19T11:16:15;23.03;;;20.50;;
1467;SDS011;727;48.892;9.544;2022-08-19T11:18:43;25.17;;;22.83;;
1467;SDS011;727;48.892;9.544;2022-08-19T11:21:14;26.27;;;23.57;;
1467;SDS011;727;48.892;9.544;2022-08-19T11:23:44;26.30;;;23.27;;
1467;SDS011;727;48.892;9.544;2022-08-19T11:26:13;27.60;;;24.80;;
1467;SDS011;727;48.892;9.544;2022-08-19T11:28:41;25.93;;;23.33;;
1467;SDS011;727;48.892;9.544;2022-08-19T11:31:11;24.80;;;21.90;;
1467;SDS011;727;48.892;9.544;2022-08-19T11:33:38;24.40;;;22.10;;
1467;SDS011;727;48.892;9.544;2022-08-19T11:36:05;33.50;;;24.13;;
1467;SDS011;727;48.892;9.544;2022-08-19T11:38:33;26.97;;;22.90;;
1467;SDS011;727;48.892;9.544;2022-08-19T11:41:01;29.20;;;25.47;;
1467;SDS011;727;48.892;9.544;2022-08-19T11:43:31;29.47;;;25.70;;
1467;SDS011;727;48.892;9.544;2022-08-19T11:45:57;26.60;;;23.97;;
1467;SDS011;727;48.892;9.544;2022-08-19T11:48:24;29.33;;;24.97;;
1467;SDS011;727;48.892;9.544;2022-08-19T11:50:52;25.13;;;22.53;;
1467;SDS011;727;48.892;9.544;2022-08-19T11:53:20;25.13;;;22.50;;
1467;SDS011;727;48.892;9.544;2022-08-19T11:55:47;26.23;;;23.73;;
1467;SDS011;727;48.892;9.544;2022-08-19T11:58:14;29.40;;;26.40;;
1467;SDS011;727;48.892;9.544;2022-08-19T12:00:44;28.10;;;25.37;;
1467;SDS011;727;48.892;9.544;2022-08-19T12:03:11;35.40;;;25.53;;
1467;SDS011;727;48.892;9.544;2022-08-19T12:05:39;28.67;;;25.57;;
1467;SDS011;727;48.892;9.544;2022-08-19T12:08:06;31.73;;;28.33;;
1467;SDS011;727;48.892;9.544;2022-08-19T12:10:34;28.70;;;25.47;;
1467;SDS011;727;48.892;9.544;2022-08-19T12:13:01;36.40;;;28.03;;
1467;SDS011;727;48.892;9.544;2022-08-19T12:15:28;28.63;;;25.77;;
1467;SDS011;727;48.892;9.544;2022-08-19T12:17:56;28.77;;;25.73;;
1467;SDS011;727;48.892;9.544;2022-08-19T12:20:23;27.57;;;24.87;;
1467;SDS011;727;48.892;9.544;2022-08-19T12:22:51;29.73;;;24.90;;
1467;SDS011;727;48.892;9.544;2022-08-19T12:25:18;32.90;;;29.30;;
1467;SDS011;727;48.892;9.544;2022-08-19T12:27:45;31.23;;;27.93;;
1467;SDS011;727;48.892;9.544;2022-08-19T12:30:13;31.23;;;27.77;;
1467;SDS011;727;48.892;9.544;2022-08-19T12:32:40;33.00;;;29.17;;
1467;SDS011;727;48.892;9.544;2022-08-19T12:35:09;29.90;;;25.50;;
1467;SDS011;727;48.892;9.544;2022-08-19T12:37:36;29.07;;;25.97;;
1467;SDS011;727;48.892;9.544;2022-08-19T12:40:04;29.63;;;26.50;;
1467;SDS011;727;48.892;9.544;2022-08-19T12:42:31;35.83;;;27.37;;
1467;SDS011;727;48.892;9.544;2022-08-19T12:44:57;32.93;;;25.90;;
1467;SDS011;727;48.892;9.544;2022-08-19T12:47:24;31.77;;;28.47;;
1467;SDS011;727;48.892;9.544;2022-08-19T12:49:51;31.63;;;27.63;;
1467;SDS011;727;48.892;9.544;2022-08-19T12:52:21;29.17;;;26.10;;
1467;SDS011;727;48.892;9.544;2022-08-19T12:54:49;26.33;;;23.73;;
1467;SDS011;727;48.892;9.544;2022-08-19T12:57:17;28.57;;;25.63;;
1467;SDS011;727;48.892;9.544;2022-08-19T12:59:43;27.23;;;24.10;;
1467;SDS011;727;48.892;9.544;2022-08-19T13:02:10;30.47;;;26.33;;
1467;SDS011;727;48.892;9.544;2022-08-19T13:04:36;29.50;;;26.50;;
1467;SDS011;727;48.892;9.544;2022-08-19T13:07:05;31.40;;;28.10;;
1467;SDS011;727;48.892;9.544;2022-08-19T13:09:34;29.17;;;26.03;;
1467;SDS011;727;48.892;9.544;2022-08-19T13:12:01;29.80;;;26.70;;
1467;SDS011;727;48.892;9.544;2022-08-19T13:14:32;32.37;;;28.77;;
1467;SDS011;727;48.892;9.544;2022-08-19T13:16:59;33.30;;;30.00;;
1467;SDS011;727;48.892;9.544;2022-08-19T13:19:26;34.97;;;31.37;;
1467;SDS011;727;48.892;9.544;2022-08-19T13:21:53;37.23;;;32.90;;
1467;SDS011;727;48.892;9.544;2022-08-19T13:24:20;38.43;;;34.07;;
1467;SDS011;727;48.892;9.544;2022-08-19T13:26:48;38.90;;;34.37;;
1467;SDS011;727;48.892;9.544;2022-08-19T13:29:15;38.73;;;34.33;;
1467;SDS011;727;48.892;9.544;2022-08-19T13:31:59;39.43;;;33.77;;
1467;SDS011;727;48.892;9.544;2022-08-19T13:34:43;37.17;;;33.07;;
1467;SDS011;727;48.892;9.544;2022-08-19T13:37:11;41.80;;;35.80;;
1467;SDS011;727;48.892;9.544;2022-08-19T13:39:38;37.20;;;33.30;;
1467;SDS011;727;48.892;9.544;2022-08-19T13:42:07;40.73;;;35.93;;
1467;SDS011;727;48.892;9.544;2022-08-19T13:44:35;42.17;;;32.67;;
1467;SDS011;727;48.892;9.544;2022-08-19T13:47:02;43.87;;;32.80;;
1467;SDS011;727;48.892;9.544;2022-08-19T13:49:31;40.30;;;34.23;;
1467;SDS011;727;48.892;9.544;2022-08-19T13:51:58;41.00;;;33.53;;
1467;SDS011;727;48.892;9.544;2022-08-19T13:54:25;35.10;;;30.67;;
1467;SDS011;727;48.892;9.544;2022-08-19T13:56:52;36.03;;;32.13;;
1467;SDS011;727;48.892;9.544;2022-08-19T13:59:20;37.10;;;32.57;;
1467;SDS011;727;48.892;9.544;2022-08-19T14:01:47;35.37;;;30.13;;
1467;SDS011;727;48.892;9.544;2022-08-19T14:04:14;35.37;;;29.73;;
1467;SDS011;727;48.892;9.544;2022-08-19T14:06:41;30.90;;;27.70;;
1467;SDS011;727;48.892;9.544;2022-08-19T14:09:08;34.67;;;30.90;;
1467;SDS011;727;48.892;9.544;2022-08-19T14:11:34;33.17;;;28.27;;
1467;SDS011;727;48.892;9.544;2022-08-19T14:14:02;31.67;;;28.27;;
1467;SDS011;727;48.892;9.544;2022-08-19T14:16:30;32.57;;;29.27;;
1467;SDS011;727;48.892;9.544;2022-08-19T14:18:57;28.63;;;25.57;;
1467;SDS011;727;48.892;9.544;2022-08-19T14:21:24;30.80;;;27.50;;
1467;SDS011;727;48.892;9.544;2022-08-19T14:23:51;30.07;;;26.97;;
1467;SDS011;727;48.892;9.544;2022-08-19T14:26:18;28.93;;;25.70;;
1467;SDS011;727;48.892;9.544;2022-08-19T14:28:46;27.87;;;24.63;;
1467;SDS011;727;48.892;9.544;2022-08-19T14:31:14;28.13;;;25.07;;
1467;SDS011;727;48.892;9.544;2022-08-19T14:33:45;28.27;;;25.40;;
1467;SDS011;727;48.892;9.544;2022-08-19T14:36:12;27.13;;;24.33;;
1467;SDS011;727;48.892;9.544;2022-08-19T14:38:39;25.83;;;23.17;;
1467;SDS011;727;48.892;9.544;2022-08-19T14:41:10;28.53;;;24.13;;
1467;SDS011;727;48.892;9.544;2022-08-19T14:43:38;24.80;;;22.27;;
1467;SDS011;727;48.892;9.544;2022-08-19T14:46:05;22.40;;;20.10;;
1467;SDS011;727;48.892;9.544;2022-08-19T14:48:33;21.97;;;19.87;;
1467;SDS011;727;48.892;9.544;2022-08-19T14:51:02;21.60;;;19.60;;
1467;SDS011;727;48.892;9.544;2022-08-19T14:53:29;21.43;;;19.43;;
1467;SDS011;727;48.892;9.544;2022-08-19T14:55:58;21.27;;;19.27;;
1467;SDS011;727;48.892;9.544;2022-08-19T14:58:25;22.67;;;20.40;;
1467;SDS011;727;48.892;9.544;2022-08-19T15:00:52;22.90;;;20.70;;
1467;SDS011;727;48.892;9.544;2022-08-19T15:03:19;22.40;;;19.80;;
1467;SDS011;727;48.892;9.544;2022-08-19T15:05:45;22.37;;;19.70;;
1467;SDS011;727;48.892;9.544;2022-08-19T15:08:13;22.00;;;18.63;;